Time;durP1;ratioP1;P1;durP2;ratioP2;P2;SDS_P1;SDS_P2;PMS_P1;PMS_P2;Temp;Humidity;BMP_temperature;BMP_pressure;BME280_temperature;BME280_humidity;BME280_pressure;Samples;Min_cycle;Max_cycle;Signal;HPM_P1;HPM_P2
2023/01/31 00:00:18;;;;;;;13.43;2.27;;;5.30;70.00;;;;;;5035074;28;20194;-64
2023/01/31 00:02:44;;;;;;;6.03;1.30;;;5.30;1.00;;;;;;5032695;28;20217;-65
2023/01/31 00:05:10;;;;;;;12.77;2.50;;;5.30;17.90;;;;;;5034455;28;20761;-66
2023/01/31 00:07:35;;;;;;;11.47;2.40;;;5.30;1.00;;;;;;5058787;28;20300;-65
2023/01/31 00:10:01;;;;;;;9.20;2.53;;;5.20;1.00;;;;;;5034151;28;20220;-65
2023/01/31 00:12:27;;;;;;;5.20;1.80;;;5.10;1.00;;;;;;5030621;28;20184;-64
2023/01/31 00:14:52;;;;;;;14.07;2.17;;;5.20;1.00;;;;;;5033153;28;20198;-63
2023/01/31 00:17:18;;;;;;;7.30;2.20;;;5.20;1.00;;;;;;5035008;28;20211;-63
2023/01/31 00:19:43;;;;;;;10.27;2.17;;;5.20;1.00;;;;;;5034193;28;20209;-64
2023/01/31 00:22:09;;;;;;;10.10;2.67;;;5.30;3.40;;;;;;5033776;28;20195;-64
2023/01/31 00:24:34;;;;;;;6.37;2.33;;;5.30;1.00;;;;;;5058365;28;20861;-65
2023/01/31 00:27:00;;;;;;;6.27;1.77;;;5.30;10.20;;;;;;5036262;28;20195;-64
2023/01/31 00:29:26;;;;;;;14.43;2.77;;;5.30;11.30;;;;;;5032670;28;20291;-64
2023/01/31 00:31:51;;;;;;;5.63;1.73;;;5.40;89.60;;;;;;5037872;28;20198;-65
2023/01/31 00:34:17;;;;;;;9.47;2.50;;;5.50;91.50;;;;;;5033926;28;20218;-63
2023/01/31 00:36:43;;;;;;;12.40;2.63;;;5.50;39.60;;;;;;5049074;28;20203;-64
2023/01/31 00:39:10;;;;;;;8.70;2.50;;;5.60;14.20;;;;;;5062430;28;20466;-66
2023/01/31 00:41:37;;;;;;;7.30;1.93;;;5.70;1.00;;;;;;5049719;28;20447;-65
2023/01/31 00:44:04;;;;;;;6.20;2.43;;;5.70;18.60;;;;;;5049434;28;20440;-66
2023/01/31 00:46:30;;;;;;;9.57;2.70;;;5.80;92.40;;;;;;5052299;28;20433;-64
2023/01/31 00:48:56;;;;;;;11.33;2.10;;;5.80;38.40;;;;;;5052568;28;20451;-64
2023/01/31 00:51:24;;;;;;;17.83;3.33;;;5.90;19.60;;;;;;5042840;28;20275;-65
2023/01/31 00:53:49;;;;;;;9.03;1.70;;;5.70;22.00;;;;;;5033200;28;20517;-64
2023/01/31 00:56:18;;;;;;;8.87;2.40;;;5.60;33.60;;;;;;5034692;28;20921;-65
2023/01/31 00:58:44;;;;;;;6.83;2.37;;;5.60;99.90;;;;;;5035910;28;20177;-63
2023/01/31 01:01:25;;;;;;;5.83;1.23;;;5.60;99.90;;;;;;5036649;28;20454;-63
2023/01/31 01:03:52;;;;;;;6.57;1.70;;;5.60;99.90;;;;;;5035697;28;20423;-64
2023/01/31 01:06:17;;;;;;;8.33;1.77;;;5.60;99.90;;;;;;5035328;28;20523;-65
2023/01/31 01:08:44;;;;;;;8.73;1.60;;;5.50;24.50;;;;;;5035710;28;20452;-64
2023/01/31 01:11:13;;;;;;;6.70;1.50;;;5.40;99.90;;;;;;5036276;28;21009;-65
2023/01/31 01:13:39;;;;;;;7.27;1.60;;;5.40;77.40;;;;;;5033500;28;20962;-64
2023/01/31 01:16:30;;;;;;;3.60;0.93;;;5.30;74.40;;;;;;5033476;28;20525;-64
2023/01/31 01:18:55;;;;;;;1.87;1.10;;;5.20;13.40;;;;;;5041493;28;20460;-65
2023/01/31 01:21:24;;;;;;;4.50;1.13;;;5.10;18.80;;;;;;5035138;28;20445;-64
2023/01/31 01:23:51;;;;;;;1.80;0.90;;;5.00;99.90;;;;;;5035472;28;20190;-65
2023/01/31 01:26:27;;;;;;;7.23;1.27;;;5.00;56.20;;;;;;5037229;28;20450;-64
2023/01/31 01:28:54;;;;;;;6.93;0.90;;;5.00;99.90;;;;;;5036944;28;20472;-64
2023/01/31 01:31:20;;;;;;;5.80;0.93;;;5.00;91.30;;;;;;5030982;28;20457;-65
2023/01/31 01:33:47;;;;;;;2.90;1.30;;;5.00;64.10;;;;;;5047950;28;20461;-64
2023/01/31 01:36:16;;;;;;;3.07;0.90;;;5.00;27.30;;;;;;5045405;28;20507;-64
2023/01/31 01:38:43;;;;;;;4.23;1.77;;;4.90;51.50;;;;;;5040169;28;20498;-65
2023/01/31 01:41:10;;;;;;;5.87;1.37;;;4.90;46.10;;;;;;5034338;28;20683;-65
2023/01/31 01:43:56;;;;;;;5.80;1.40;;;4.80;45.10;;;;;;5036718;28;20480;-64
2023/01/31 01:46:29;;;;;;;5.70;1.60;;;4.70;1.00;;;;;;5034148;28;20463;-62
2023/01/31 01:49:19;;;;;;;8.43;1.57;;;4.60;31.10;;;;;;5037015;28;20533;-64
2023/01/31 01:51:47;;;;;;;9.73;2.10;;;4.50;1.00;;;;;;5036052;28;20479;-65
2023/01/31 01:54:19;;;;;;;8.03;2.17;;;4.60;40.70;;;;;;5033806;28;20460;-64
2023/01/31 01:56:50;;;;;;;4.33;1.60;;;5.00;41.20;;;;;;5033169;28;20825;-63
2023/01/31 01:59:22;;;;;;;9.13;2.47;;;4.70;99.90;;;;;;5037302;28;20856;-64
2023/01/31 02:01:49;;;;;;;7.20;2.03;;;4.70;99.90;;;;;;5037135;28;20487;-65
2023/01/31 02:04:26;;;;;;;5.90;1.90;;;4.70;99.90;;;;;;5041941;28;20458;-64
2023/01/31 02:06:52;;;;;;;4.30;1.87;;;4.90;94.30;;;;;;5038464;28;20452;-65
2023/01/31 02:09:35;;;;;;;6.97;1.53;;;5.00;99.90;;;;;;5043664;28;20453;-66
2023/01/31 02:12:01;;;;;;;5.70;1.67;;;4.90;99.90;;;;;;5048158;28;20452;-65
2023/01/31 02:14:26;;;;;;;6.73;1.53;;;5.00;99.90;;;;;;5045197;28;20822;-65
2023/01/31 02:16:52;;;;;;;10.43;2.37;;;5.10;99.90;;;;;;5043584;28;20800;-66
2023/01/31 02:19:54;;;;;;;4.77;2.20;;;5.10;99.90;;;;;;5042989;28;21072;-65
2023/01/31 02:22:59;;;;;;;5.23;2.10;;;5.20;77.00;;;;;;5048538;28;20182;-64
2023/01/31 02:26:08;;;;;;;7.97;3.00;;;5.10;99.90;;;;;;5046711;28;20518;-64
2023/01/31 02:29:12;;;;;;;10.67;2.50;;;5.20;99.90;;;;;;5033734;28;20472;-64
2023/01/31 02:31:51;;;;;;;8.53;2.40;;;5.10;99.90;;;;;;4998749;28;20822;-64
2023/01/31 02:34:34;;;;;;;13.47;2.60;;;5.20;99.90;;;;;;5005336;28;20442;-65
2023/01/31 02:37:28;;;;;;;13.13;2.50;;;5.20;99.90;;;;;;5026461;28;20480;-64
2023/01/31 02:40:21;;;;;;;8.60;2.33;;;5.20;99.90;;;;;;5042832;28;20457;-65
2023/01/31 02:43:23;;;;;;;7.17;1.97;;;5.30;99.90;;;;;;5042373;28;20445;-64
2023/01/31 02:46:09;;;;;;;9.03;2.40;;;5.30;99.10;;;;;;5055977;28;20422;-63
2023/01/31 02:48:59;;;;;;;15.33;3.00;;;5.30;78.70;;;;;;5041889;28;20506;-64
2023/01/31 02:51:31;;;;;;;11.27;2.50;;;5.30;97.40;;;;;;5046871;28;20441;-62
2023/01/31 02:54:08;;;;;;;12.53;3.07;;;5.20;99.90;;;;;;5056325;28;20575;-64
2023/01/31 02:56:36;;;;;;;5.70;2.30;;;5.20;99.90;;;;;;5042183;28;20566;-63
2023/01/31 02:59:12;;;;;;;10.00;2.50;;;5.20;7.80;;;;;;5046294;28;20536;-63
2023/01/31 03:01:46;;;;;;;9.73;2.80;;;5.20;27.90;;;;;;5041827;28;20431;-63
2023/01/31 03:04:13;;;;;;;7.80;2.70;;;5.30;1.00;;;;;;5052037;28;20459;-63
2023/01/31 03:07:03;;;;;;;7.30;1.90;;;5.30;1.00;;;;;;5043149;28;20424;-64
2023/01/31 03:09:42;;;;;;;7.50;2.50;;;5.30;1.00;;;;;;5050371;28;20451;-64
2023/01/31 03:12:17;;;;;;;9.40;2.03;;;5.20;1.00;;;;;;5052472;28;20560;-65
2023/01/31 03:15:00;;;;;;;8.70;2.10;;;5.30;1.00;;;;;;5042165;28;20449;-65
2023/01/31 03:17:38;;;;;;;7.93;1.90;;;5.40;1.00;;;;;;5044829;28;20896;-64
2023/01/31 03:20:08;;;;;;;9.60;3.07;;;5.40;47.80;;;;;;5039406;28;21069;-65
2023/01/31 03:22:44;;;;;;;13.60;2.80;;;5.50;15.50;;;;;;5040427;28;20475;-65
2023/01/31 03:25:13;;;;;;;7.77;2.63;;;5.40;1.00;;;;;;5032586;28;20445;-65
2023/01/31 03:27:44;;;;;;;10.53;2.27;;;5.30;1.00;;;;;;5033705;28;20454;-64
2023/01/31 03:30:26;;;;;;;10.13;2.23;;;5.30;36.50;;;;;;5032296;28;20813;-64
2023/01/31 03:32:58;;;;;;;5.73;1.90;;;5.20;5.90;;;;;;5037363;28;21151;-63
2023/01/31 03:35:26;;;;;;;7.60;2.40;;;5.00;51.90;;;;;;5038618;28;20572;-63
2023/01/31 03:37:59;;;;;;;6.03;1.83;;;5.00;58.30;;;;;;5041334;28;20517;-63
2023/01/31 03:40:33;;;;;;;9.93;2.40;;;5.00;74.80;;;;;;5058124;28;20456;-64
2023/01/31 03:43:10;;;;;;;11.53;3.93;;;5.00;99.90;;;;;;5043153;28;20458;-64
2023/01/31 03:45:48;;;;;;;9.03;2.50;;;5.10;26.60;;;;;;5034706;28;20473;-65
2023/01/31 03:48:17;;;;;;;8.67;2.33;;;5.10;99.90;;;;;;5032002;28;20534;-66
2023/01/31 03:50:57;;;;;;;7.40;2.63;;;5.10;20.90;;;;;;5033738;28;21007;-64
2023/01/31 03:53:28;;;;;;;9.50;2.07;;;5.10;99.90;;;;;;5034276;28;20455;-63
2023/01/31 03:56:08;;;;;;;5.47;2.30;;;4.90;99.90;;;;;;5032620;28;20530;-64
2023/01/31 03:58:39;;;;;;;6.33;2.20;;;4.80;99.90;;;;;;5035540;28;20987;-65
2023/01/31 04:01:07;;;;;;;6.07;1.90;;;4.80;99.90;;;;;;5032445;28;20456;-64
2023/01/31 04:03:44;;;;;;;5.33;2.10;;;4.70;99.90;;;;;;5033662;28;20454;-65
2023/01/31 04:06:11;;;;;;;11.37;2.63;;;4.60;99.90;;;;;;5032667;28;20500;-64
2023/01/31 04:08:37;;;;;;;12.10;2.80;;;4.60;99.90;;;;;;5033540;28;20560;-64
2023/01/31 04:11:04;;;;;;;6.80;2.30;;;4.50;99.90;;;;;;5028296;28;20465;-64
2023/01/31 04:13:30;;;;;;;6.20;2.07;;;4.60;99.90;;;;;;5044347;28;20444;-65
2023/01/31 04:15:56;;;;;;;5.23;1.50;;;4.60;99.90;;;;;;5033827;28;20462;-64
2023/01/31 04:18:21;;;;;;;5.00;1.83;;;4.50;97.10;;;;;;5031430;28;20191;-64
2023/01/31 04:20:47;;;;;;;5.03;2.60;;;4.60;99.90;;;;;;5035399;28;20197;-64
2023/01/31 04:23:13;;;;;;;6.07;2.07;;;4.70;99.90;;;;;;5040884;28;20191;-64
2023/01/31 04:25:38;;;;;;;9.27;2.73;;;4.60;99.90;;;;;;5036970;28;20190;-64
2023/01/31 04:28:04;;;;;;;9.73;1.93;;;4.60;99.90;;;;;;5037991;28;20312;-64
2023/01/31 04:30:29;;;;;;;4.90;2.00;;;4.50;99.90;;;;;;5036722;28;20196;-64
2023/01/31 04:32:55;;;;;;;5.33;1.60;;;4.60;99.90;;;;;;5036703;28;20184;-65
2023/01/31 04:35:21;;;;;;;9.17;2.27;;;4.60;99.90;;;;;;5038612;28;20319;-65
2023/01/31 04:37:46;;;;;;;6.50;2.47;;;4.50;99.90;;;;;;5038302;28;20183;-65
2023/01/31 04:40:13;;;;;;;9.70;2.90;;;4.70;99.90;;;;;;5038890;28;20599;-64
2023/01/31 04:42:39;;;;;;;6.27;2.20;;;4.60;99.90;;;;;;5035772;28;20191;-63
2023/01/31 04:45:05;;;;;;;9.40;2.30;;;4.60;99.90;;;;;;5038512;28;20467;-65
2023/01/31 04:47:30;;;;;;;8.70;3.10;;;4.70;99.90;;;;;;5041590;28;20444;-64
2023/01/31 04:49:56;;;;;;;9.80;2.63;;;4.70;99.90;;;;;;5054812;28;20445;-64
2023/01/31 04:52:23;;;;;;;5.43;2.20;;;4.80;99.90;;;;;;5049739;28;20216;-64
2023/01/31 04:54:49;;;;;;;6.33;2.60;;;4.90;99.90;;;;;;5047976;28;20192;-64
2023/01/31 04:57:14;;;;;;;10.40;2.93;;;4.90;99.90;;;;;;5050299;28;20475;-64
2023/01/31 04:59:40;;;;;;;13.37;2.40;;;5.00;99.90;;;;;;5043655;28;20235;-64
2023/01/31 05:02:06;;;;;;;11.27;3.27;;;5.00;99.90;;;;;;5031647;28;21340;-63
2023/01/31 05:04:32;;;;;;;7.97;2.03;;;5.10;99.50;;;;;;5039927;28;20181;-64
2023/01/31 05:06:57;;;;;;;2.90;1.80;;;5.20;99.90;;;;;;5035851;28;20794;-64
2023/01/31 05:09:23;;;;;;;5.80;1.90;;;5.30;99.90;;;;;;5045986;28;20204;-65
2023/01/31 05:11:50;;;;;;;18.97;2.60;;;5.40;59.10;;;;;;5052090;28;20197;-64
2023/01/31 05:14:17;;;;;;;9.77;2.60;;;5.30;99.90;;;;;;5060050;28;20455;-61
2023/01/31 05:16:46;;;;;;;9.93;2.03;;;5.30;95.50;;;;;;5044516;28;20486;-61
2023/01/31 05:19:12;;;;;;;10.47;2.20;;;5.10;99.90;;;;;;5051192;28;20552;-63
2023/01/31 05:21:53;;;;;;;7.73;1.57;;;5.20;19.90;;;;;;5066187;28;20443;-64
2023/01/31 05:24:22;;;;;;;9.27;2.23;;;5.20;99.90;;;;;;5049117;28;20986;-64
2023/01/31 05:26:50;;;;;;;9.50;1.90;;;5.20;94.30;;;;;;5049753;28;20428;-63
2023/01/31 05:29:16;;;;;;;9.47;2.17;;;5.30;23.70;;;;;;5051086;28;20854;-65
2023/01/31 05:31:42;;;;;;;6.63;1.60;;;5.30;8.80;;;;;;5054804;28;20837;-65
2023/01/31 05:34:09;;;;;;;6.50;2.40;;;5.40;29.20;;;;;;5049683;28;20535;-64
2023/01/31 05:36:34;;;;;;;5.50;1.87;;;5.50;86.90;;;;;;5047135;28;20210;-63
2023/01/31 05:39:00;;;;;;;16.10;2.13;;;5.50;99.90;;;;;;5048856;28;20465;-63
2023/01/31 05:41:26;;;;;;;8.33;3.30;;;5.60;99.90;;;;;;5047581;28;20496;-64
2023/01/31 05:43:51;;;;;;;8.70;2.57;;;5.70;99.90;;;;;;5051687;28;20183;-64
2023/01/31 05:46:17;;;;;;;12.60;3.50;;;5.60;93.80;;;;;;5044680;28;20269;-65
2023/01/31 05:48:42;;;;;;;12.23;2.60;;;5.60;99.90;;;;;;5047654;28;20202;-65
2023/01/31 05:51:08;;;;;;;21.17;3.03;;;5.60;99.90;;;;;;5049887;28;20190;-64
2023/01/31 05:53:33;;;;;;;6.47;1.90;;;5.70;99.90;;;;;;5049056;28;20724;-64
2023/01/31 05:55:59;;;;;;;13.93;3.20;;;5.50;99.90;;;;;;5049795;28;20218;-65
2023/01/31 05:58:25;;;;;;;15.53;2.97;;;5.50;93.30;;;;;;5048648;28;20676;-64
2023/01/31 06:00:55;;;;;;;15.07;2.70;;;5.50;99.90;;;;;;5044425;28;20560;-65
2023/01/31 06:03:21;;;;;;;9.90;2.50;;;5.50;99.90;;;;;;5048450;28;20198;-64
2023/01/31 06:05:46;;;;;;;13.93;3.17;;;5.50;99.90;;;;;;5046896;28;20570;-63
2023/01/31 06:08:12;;;;;;;12.43;4.13;;;5.60;99.90;;;;;;5043337;28;20224;-64
2023/01/31 06:10:38;;;;;;;5.67;1.90;;;5.60;99.90;;;;;;5044230;28;20198;-64
2023/01/31 06:13:06;;;;;;;6.57;2.00;;;5.60;99.90;;;;;;5049358;28;20918;-64
2023/01/31 06:15:33;;;;;;;5.80;2.67;;;5.50;72.20;;;;;;5044108;28;20945;-65
2023/01/31 06:17:58;;;;;;;6.97;2.40;;;5.60;99.90;;;;;;5049674;28;20454;-64
2023/01/31 06:20:25;;;;;;;8.90;1.73;;;5.50;99.90;;;;;;5048633;28;20502;-64
2023/01/31 06:22:51;;;;;;;15.87;2.70;;;5.50;99.10;;;;;;5048232;28;20249;-64
2023/01/31 06:25:16;;;;;;;5.07;2.30;;;5.50;99.90;;;;;;5050161;28;20441;-64
2023/01/31 06:27:42;;;;;;;8.10;2.13;;;5.50;99.90;;;;;;5060946;28;20282;-64
2023/01/31 06:30:09;;;;;;;9.43;2.80;;;5.40;80.60;;;;;;5050248;28;20649;-63
2023/01/31 06:32:35;;;;;;;8.90;2.87;;;5.40;99.90;;;;;;5048486;28;20195;-64
2023/01/31 06:35:02;;;;;;;6.37;2.53;;;5.50;99.90;;;;;;5045775;28;20855;-66
2023/01/31 06:37:28;;;;;;;7.60;2.30;;;5.60;80.20;;;;;;5045412;28;20240;-64
2023/01/31 06:39:54;;;;;;;9.40;2.30;;;5.40;95.00;;;;;;5046160;28;20540;-65
2023/01/31 06:42:19;;;;;;;7.17;2.47;;;5.40;95.60;;;;;;5045436;28;20183;-64
2023/01/31 06:44:45;;;;;;;7.87;2.17;;;5.30;46.80;;;;;;5045444;28;20183;-64
2023/01/31 06:47:11;;;;;;;5.30;1.40;;;5.20;35.00;;;;;;5044733;28;20198;-64
2023/01/31 06:49:38;;;;;;;5.07;1.60;;;5.00;99.90;;;;;;5045882;28;20192;-65
2023/01/31 06:52:04;;;;;;;4.93;1.83;;;4.90;99.90;;;;;;5049784;28;20476;-65
2023/01/31 06:54:29;;;;;;;12.43;3.53;;;4.70;99.90;;;;;;5049940;28;20918;-63
2023/01/31 06:56:55;;;;;;;12.97;3.10;;;4.80;99.90;;;;;;5047365;28;20245;-63
2023/01/31 06:59:21;;;;;;;6.00;2.00;;;5.00;99.90;;;;;;5048866;28;20186;-64
2023/01/31 07:01:46;;;;;;;7.77;2.57;;;5.10;99.90;;;;;;5044851;28;20525;-64
2023/01/31 07:04:12;;;;;;;7.90;2.07;;;5.20;99.90;;;;;;5048004;28;20468;-64
2023/01/31 07:06:38;;;;;;;5.40;2.37;;;5.30;99.90;;;;;;5048954;28;20186;-65
2023/01/31 07:09:04;;;;;;;7.00;2.23;;;5.20;99.90;;;;;;5049815;28;20264;-64
2023/01/31 07:11:29;;;;;;;8.73;2.20;;;5.30;99.90;;;;;;5045523;28;20202;-64
2023/01/31 07:13:55;;;;;;;8.37;2.00;;;5.30;99.90;;;;;;5049555;28;20437;-65
2023/01/31 07:16:22;;;;;;;5.97;2.40;;;5.50;99.90;;;;;;5045963;28;20219;-65
2023/01/31 07:18:52;;;;;;;8.20;2.30;;;5.50;99.90;;;;;;5047149;28;20206;-64
2023/01/31 07:21:17;;;;;;;3.63;1.70;;;5.50;99.90;;;;;;5043559;28;21202;-65
2023/01/31 07:23:44;;;;;;;6.87;2.00;;;5.50;99.90;;;;;;5046955;28;20449;-65
2023/01/31 07:26:10;;;;;;;8.50;2.03;;;5.50;99.90;;;;;;5046199;28;20186;-65
2023/01/31 07:28:35;;;;;;;5.23;2.43;;;5.60;99.90;;;;;;5047563;28;20522;-66
2023/01/31 07:31:10;;;;;;;4.57;2.60;;;5.70;99.90;;;;;;5049283;28;20198;-64
2023/01/31 07:33:36;;;;;;;4.43;2.10;;;5.60;99.90;;;;;;5054265;28;20595;-65
2023/01/31 07:36:03;;;;;;;7.10;2.87;;;5.70;99.90;;;;;;5049440;28;20468;-66
2023/01/31 07:38:30;;;;;;;9.27;2.87;;;5.80;99.90;;;;;;5046533;28;20958;-64
2023/01/31 07:40:59;;;;;;;14.83;2.80;;;5.80;99.90;;;;;;5049044;28;20791;-66
2023/01/31 07:43:25;;;;;;;7.20;2.17;;;5.70;99.90;;;;;;5045941;28;20781;-64
2023/01/31 07:45:51;;;;;;;7.67;2.50;;;5.70;99.90;;;;;;5048214;28;20491;-65
2023/01/31 07:48:22;;;;;;;6.20;2.13;;;5.60;99.90;;;;;;5041935;28;20488;-65
2023/01/31 07:50:58;;;;;;;10.00;2.50;;;5.50;99.90;;;;;;5045519;28;20253;-64
2023/01/31 07:53:27;;;;;;;5.90;1.70;;;5.50;99.90;;;;;;5045982;28;20869;-65
2023/01/31 07:55:53;;;;;;;9.23;2.30;;;5.50;92.90;;;;;;5055496;28;20473;-65
2023/01/31 07:58:18;;;;;;;5.20;1.57;;;5.40;99.90;;;;;;5057452;28;20449;-65
2023/01/31 08:03:33;;;;;;;4.60;2.30;;;5.50;99.90;;;;;;5043940;28;20227;-64
2023/01/31 08:06:07;;;;;;;4.90;1.90;;;5.50;99.90;;;;;;5045465;28;20452;-64
2023/01/31 08:08:33;;;;;;;6.87;2.23;;;5.40;99.90;;;;;;5043059;28;20934;-65
2023/01/31 08:10:59;;;;;;;12.57;1.87;;;5.20;99.90;;;;;;5041708;28;20456;-64
2023/01/31 08:13:25;;;;;;;5.43;2.33;;;5.30;99.90;;;;;;5062683;28;20460;-65
2023/01/31 08:15:52;;;;;;;9.57;1.97;;;5.40;99.90;;;;;;5052702;28;20258;-65
2023/01/31 08:18:18;;;;;;;8.63;2.17;;;5.40;99.90;;;;;;5052521;28;20446;-64
2023/01/31 08:20:43;;;;;;;2.70;1.53;;;5.60;99.90;;;;;;5050184;28;20468;-64
2023/01/31 08:23:10;;;;;;;5.57;1.47;;;5.70;99.90;;;;;;5045958;28;20575;-66
2023/01/31 08:25:36;;;;;;;12.57;3.37;;;5.70;99.90;;;;;;5050111;28;20187;-65
2023/01/31 08:28:02;;;;;;;5.90;1.90;;;5.90;99.90;;;;;;5068232;28;20443;-64
2023/01/31 08:30:28;;;;;;;8.37;2.10;;;6.10;94.20;;;;;;5051497;28;20186;-65
2023/01/31 08:32:54;;;;;;;26.93;3.73;;;6.30;99.90;;;;;;5048796;28;20439;-65
2023/01/31 08:35:20;;;;;;;8.53;2.57;;;6.20;87.50;;;;;;5043264;28;20202;-64
2023/01/31 08:37:46;;;;;;;4.23;1.70;;;6.10;62.30;;;;;;5058596;28;20483;-66
2023/01/31 08:40:12;;;;;;;3.93;2.00;;;5.90;99.90;;;;;;5044446;28;20458;-66
2023/01/31 08:42:38;;;;;;;11.37;2.40;;;5.90;99.90;;;;;;5044703;28;20257;-66
2023/01/31 08:45:05;;;;;;;10.77;2.40;;;5.80;99.90;;;;;;5057301;28;20435;-66
2023/01/31 08:47:32;;;;;;;14.47;2.10;;;5.90;99.90;;;;;;5056998;28;20451;-66
2023/01/31 08:49:57;;;;;;;7.27;1.70;;;6.10;99.90;;;;;;5052534;28;20448;-66
2023/01/31 08:52:23;;;;;;;10.37;2.10;;;6.10;99.90;;;;;;5059828;28;20482;-65
2023/01/31 08:54:48;;;;;;;9.00;2.50;;;6.00;99.90;;;;;;5059209;28;20206;-66
2023/01/31 08:57:14;;;;;;;7.67;1.57;;;6.10;99.90;;;;;;5060699;28;20548;-66
2023/01/31 08:59:39;;;;;;;11.10;2.80;;;6.10;99.90;;;;;;5061995;28;20292;-65
2023/01/31 09:02:06;;;;;;;7.77;2.80;;;6.10;60.50;;;;;;5068379;28;20196;-65
2023/01/31 09:04:31;;;;;;;6.10;2.20;;;6.10;1.00;;;;;;5046731;28;20641;-65
2023/01/31 09:06:57;;;;;;;6.27;1.70;;;6.20;1.00;;;;;;5060240;28;20424;-66
2023/01/31 09:09:24;;;;;;;10.70;2.17;;;6.10;1.00;;;;;;5057726;28;20195;-66
2023/01/31 09:11:53;;;;;;;6.83;1.97;;;6.20;1.00;;;;;;5061357;28;20538;-65
2023/01/31 09:14:19;;;;;;;7.27;2.00;;;6.30;1.00;;;;;;5068015;28;20527;-65
2023/01/31 09:16:45;;;;;;;8.03;1.77;;;6.20;1.00;;;;;;5053437;28;20547;-65
2023/01/31 09:19:11;;;;;;;5.40;1.20;;;6.30;1.00;;;;;;5047777;28;20187;-66
2023/01/31 09:21:37;;;;;;;7.63;1.60;;;6.40;1.00;;;;;;5062498;28;20527;-65
2023/01/31 09:24:03;;;;;;;6.63;2.23;;;6.30;99.90;;;;;;5045286;28;20891;-66
2023/01/31 09:26:30;;;;;;;6.43;1.83;;;6.20;40.10;;;;;;5053290;28;20450;-66
2023/01/31 09:28:57;;;;;;;10.30;2.23;;;6.50;96.80;;;;;;5057910;28;20734;-66
2023/01/31 09:31:23;;;;;;;3.00;1.60;;;6.30;96.60;;;;;;5054268;28;20848;-65
2023/01/31 09:33:49;;;;;;;9.03;2.67;;;6.30;1.00;;;;;;5049708;28;21079;-66
2023/01/31 09:36:20;;;;;;;7.30;2.23;;;6.60;1.00;;;;;;5050028;28;20447;-66
2023/01/31 09:38:46;;;;;;;7.23;1.93;;;6.60;67.00;;;;;;5061205;28;20191;-66
2023/01/31 09:41:16;;;;;;;10.27;2.53;;;6.60;1.00;;;;;;5051606;28;20473;-66
2023/01/31 09:43:48;;;;;;;5.63;1.50;;;6.60;1.00;;;;;;5051420;28;20437;-66
2023/01/31 09:46:17;;;;;;;4.97;1.83;;;6.60;1.00;;;;;;5051641;28;20448;-65
2023/01/31 09:48:47;;;;;;;3.90;1.93;;;6.70;1.00;;;;;;5050234;28;20451;-67
2023/01/31 09:51:15;;;;;;;4.83;1.67;;;6.80;1.00;;;;;;5051231;28;20430;-66
2023/01/31 09:53:41;;;;;;;6.83;1.80;;;6.80;1.00;;;;;;5060457;28;20448;-66
2023/01/31 09:56:28;;;;;;;6.60;2.33;;;6.70;1.00;;;;;;5064134;28;20862;-66
2023/01/31 09:58:59;;;;;;;5.83;2.43;;;6.70;1.00;;;;;;5052671;28;20446;-66
2023/01/31 10:01:31;;;;;;;5.60;1.83;;;6.80;1.00;;;;;;5068479;28;20431;-66
2023/01/31 10:04:32;;;;;;;3.70;1.80;;;6.90;1.00;;;;;;5057143;28;20425;-66
2023/01/31 10:07:13;;;;;;;6.20;1.53;;;7.10;1.00;;;;;;5050442;28;20954;-66
2023/01/31 10:10:12;;;;;;;6.33;2.13;;;7.30;1.00;;;;;;5062725;28;20431;-67
2023/01/31 10:12:56;;;;;;;6.13;1.47;;;7.40;1.00;;;;;;4997764;28;20495;-66
2023/01/31 10:15:31;;;;;;;8.13;2.33;;;7.30;1.00;;;;;;5071321;28;20443;-66
2023/01/31 10:18:19;;;;;;;13.77;2.27;;;7.30;1.00;;;;;;5071012;28;20468;-67
2023/01/31 10:20:52;;;;;;;8.53;2.40;;;7.20;1.00;;;;;;5056684;28;20516;-66
2023/01/31 10:23:24;;;;;;;5.60;2.10;;;7.20;1.00;;;;;;5050707;28;20434;-65
2023/01/31 10:26:02;;;;;;;5.57;1.17;;;7.00;1.00;;;;;;5045339;28;20930;-65
2023/01/31 10:28:58;;;;;;;4.93;1.53;;;6.80;1.00;;;;;;5048015;28;20445;-66
2023/01/31 10:31:37;;;;;;;6.10;1.63;;;7.00;1.00;;;;;;5050273;28;20407;-65
2023/01/31 10:34:06;;;;;;;6.77;1.80;;;7.00;1.00;;;;;;5050612;28;20584;-65
2023/01/31 10:36:48;;;;;;;4.00;2.00;;;7.20;1.00;;;;;;5048201;28;20464;-66
2023/01/31 10:39:31;;;;;;;4.23;1.80;;;7.30;1.00;;;;;;5050584;28;20479;-66
2023/01/31 10:42:31;;;;;;;10.87;2.47;;;7.30;1.00;;;;;;5050716;28;20957;-66
2023/01/31 10:45:15;;;;;;;6.17;1.90;;;7.40;1.00;;;;;;5049709;28;20575;-66
2023/01/31 10:48:12;;;;;;;6.00;2.33;;;7.40;1.00;;;;;;5050566;28;20503;-64
2023/01/31 10:51:08;;;;;;;2.87;2.03;;;7.20;1.00;;;;;;5050314;28;20455;-67
2023/01/31 10:53:42;;;;;;;5.03;1.77;;;7.30;1.00;;;;;;5048961;28;20469;-67
2023/01/31 10:56:16;;;;;;;6.63;2.10;;;7.30;1.00;;;;;;5049858;28;20469;-67
2023/01/31 10:58:41;;;;;;;9.23;2.37;;;7.30;1.00;;;;;;5048983;28;20430;-65
2023/01/31 11:01:10;;;;;;;5.40;2.00;;;7.10;1.00;;;;;;5050081;28;20431;-67
2023/01/31 11:03:37;;;;;;;6.20;2.07;;;7.20;1.00;;;;;;5050073;28;20435;-66
2023/01/31 11:06:05;;;;;;;2.57;1.60;;;7.30;1.00;;;;;;5049992;28;20507;-66
2023/01/31 11:08:40;;;;;;;6.40;2.50;;;7.30;1.00;;;;;;5049978;28;20535;-66
2023/01/31 11:11:16;;;;;;;8.63;1.90;;;7.40;1.00;;;;;;5047819;28;20420;-66
2023/01/31 11:14:00;;;;;;;7.97;2.20;;;7.30;1.00;;;;;;5050072;28;20414;-66
2023/01/31 11:16:37;;;;;;;4.23;1.50;;;7.40;1.00;;;;;;5049756;28;20461;-66
2023/01/31 11:19:16;;;;;;;4.90;2.03;;;7.40;1.00;;;;;;5049890;28;20468;-68
2023/01/31 11:21:51;;;;;;;5.47;1.67;;;7.30;1.00;;;;;;5048797;28;20495;-66
2023/01/31 11:24:23;;;;;;;4.90;2.30;;;7.40;1.00;;;;;;5049587;28;20428;-66
2023/01/31 11:27:13;;;;;;;6.23;2.10;;;7.20;1.00;;;;;;5049215;28;20528;-66
2023/01/31 11:29:44;;;;;;;6.97;2.07;;;7.30;1.00;;;;;;5046137;28;20992;-67
2023/01/31 11:32:22;;;;;;;4.43;2.00;;;7.50;1.00;;;;;;5062603;28;20935;-66
2023/01/31 11:34:59;;;;;;;6.87;2.60;;;7.60;1.00;;;;;;5069759;28;20539;-66
2023/01/31 11:37:27;;;;;;;5.43;1.73;;;7.60;1.00;;;;;;5069547;28;20501;-66
2023/01/31 11:39:58;;;;;;;3.37;1.80;;;7.50;1.00;;;;;;5069609;28;20433;-66
2023/01/31 11:42:23;;;;;;;9.93;2.60;;;7.60;1.00;;;;;;5069576;28;20436;-65
2023/01/31 11:44:58;;;;;;;12.03;2.07;;;7.80;1.00;;;;;;5051748;28;20431;-66
2023/01/31 11:47:51;;;;;;;7.63;3.50;;;7.90;1.00;;;;;;5049481;28;20520;-67
2023/01/31 11:50:33;;;;;;;5.10;2.33;;;7.90;1.00;;;;;;5052883;28;20788;-67
2023/01/31 11:53:15;;;;;;;3.97;2.23;;;7.60;1.00;;;;;;5057870;28;20475;-66
2023/01/31 11:55:42;;;;;;;6.50;2.53;;;7.60;1.00;;;;;;5049243;28;20441;-66
2023/01/31 11:58:20;;;;;;;6.77;2.50;;;7.70;1.00;;;;;;5049291;28;20475;-65
2023/01/31 12:00:59;;;;;;;6.63;2.30;;;7.80;1.00;;;;;;5047574;28;20496;-66
2023/01/31 12:03:26;;;;;;;9.67;2.30;;;7.90;1.00;;;;;;5049133;28;20915;-65
2023/01/31 12:06:07;;;;;;;5.30;2.37;;;8.20;1.00;;;;;;5047876;28;20631;-66
2023/01/31 12:08:37;;;;;;;4.90;2.23;;;8.00;1.00;;;;;;5048977;28;20520;-66
2023/01/31 12:11:05;;;;;;;9.00;2.30;;;7.90;1.00;;;;;;5049494;28;20561;-66
2023/01/31 12:13:31;;;;;;;4.70;2.10;;;7.90;1.00;;;;;;5056494;28;20483;-66
2023/01/31 12:16:03;;;;;;;4.13;2.20;;;8.00;1.00;;;;;;5046984;28;20468;-66
2023/01/31 12:18:37;;;;;;;3.73;2.60;;;8.00;1.00;;;;;;5049039;28;20937;-66
2023/01/31 12:21:08;;;;;;;6.60;3.10;;;7.90;1.00;;;;;;5048991;28;20439;-66
2023/01/31 12:23:57;;;;;;;8.27;2.90;;;7.80;1.00;;;;;;5049120;28;20569;-66
2023/01/31 12:26:44;;;;;;;8.13;2.90;;;7.80;1.00;;;;;;5048887;28;20522;-66
2023/01/31 12:29:48;;;;;;;6.73;2.70;;;7.90;1.00;;;;;;5047051;28;20456;-65
2023/01/31 12:32:29;;;;;;;5.00;2.87;;;8.10;1.00;;;;;;5045087;28;20532;-66
2023/01/31 12:35:23;;;;;;;12.80;2.70;;;8.20;1.00;;;;;;5046940;28;20513;-66
2023/01/31 12:37:55;;;;;;;4.83;2.63;;;8.20;1.00;;;;;;5047252;28;20443;-67
2023/01/31 12:40:51;;;;;;;8.50;3.20;;;8.20;1.00;;;;;;5049503;28;20485;-66
2023/01/31 12:43:36;;;;;;;6.93;2.63;;;8.00;1.00;;;;;;5052843;28;20432;-65
2023/01/31 12:46:37;;;;;;;7.57;3.07;;;7.80;1.00;;;;;;5052328;28;20421;-65
2023/01/31 12:49:05;;;;;;;6.43;2.37;;;7.70;1.00;;;;;;5052187;28;20587;-66
2023/01/31 12:52:09;;;;;;;4.30;2.50;;;7.70;1.00;;;;;;5052101;28;20787;-66
2023/01/31 12:54:59;;;;;;;9.00;3.27;;;7.60;1.00;;;;;;5052336;28;20473;-66
2023/01/31 12:57:34;;;;;;;5.93;2.80;;;7.50;1.00;;;;;;5052295;28;20460;-65
2023/01/31 13:00:16;;;;;;;9.53;3.13;;;7.30;1.00;;;;;;5050877;28;20441;-67
2023/01/31 13:03:04;;;;;;;8.30;2.80;;;7.40;1.00;;;;;;5049502;28;20515;-66
2023/01/31 13:05:39;;;;;;;11.20;3.40;;;7.60;1.00;;;;;;5050945;28;20428;-66
2023/01/31 13:08:25;;;;;;;12.03;4.50;;;7.40;1.00;;;;;;5050486;28;20473;-66
2023/01/31 13:11:04;;;;;;;6.30;3.73;;;7.60;1.00;;;;;;5068007;28;20436;-65
2023/01/31 13:13:46;;;;;;;8.00;3.67;;;7.40;1.00;;;;;;5072045;28;20423;-66
2023/01/31 13:16:14;;;;;;;9.47;2.90;;;7.60;1.00;;;;;;5057974;28;20989;-65
2023/01/31 13:18:42;;;;;;;11.63;3.27;;;7.70;1.00;;;;;;5066401;28;20899;-67
2023/01/31 13:21:12;;;;;;;5.40;3.30;;;7.80;1.00;;;;;;5071549;28;20501;-66
2023/01/31 13:23:45;;;;;;;4.43;2.93;;;7.50;1.00;;;;;;5071863;28;20948;-66